Time;durP1;ratioP1;P1;durP2;ratioP2;P2;SDS_P1;SDS_P2;PMS_P1;PMS_P2;Temp;Humidity;BMP_temperature;BMP_pressure;BME280_temperature;BME280_humidity;BME280_pressure;Samples;Min_cycle;Max_cycle;Signal;HPM_P1;HPM_P2
2022/09/23 00:01:48;;;;;;;2.35;1.48;;;;;;;;;;7389558;19;20005;-69
2022/09/23 00:04:14;;;;;;;3.47;1.70;;;;;;;;;;7388801;19;20003;-69
2022/09/23 00:06:40;;;;;;;1.73;1.60;;;;;;;;;;7390390;19;20017;-69
2022/09/23 00:09:05;;;;;;;1.45;1.25;;;;;;;;;;7390641;19;20395;-69
2022/09/23 00:11:31;;;;;;;2.88;1.85;;;;;;;;;;7391876;19;20006;-68
2022/09/23 00:13:59;;;;;;;5.38;2.05;;;;;;;;;;7389947;19;20033;-69
2022/09/23 00:16:32;;;;;;;2.75;1.90;;;;;;;;;;7389913;19;20058;-70
2022/09/23 00:18:59;;;;;;;2.38;1.80;;;;;;;;;;7390326;19;20034;-69
2022/09/23 00:21:25;;;;;;;3.60;1.75;;;;;;;;;;7388809;19;20525;-69
2022/09/23 00:23:51;;;;;;;2.03;1.67;;;;;;;;;;7388382;19;20007;-69
2022/09/23 00:26:19;;;;;;;2.88;1.90;;;;;;;;;;7389296;19;19999;-69
2022/09/23 00:28:44;;;;;;;2.03;1.38;;;;;;;;;;7389439;19;20005;-69
2022/09/23 00:31:13;;;;;;;1.13;1.13;;;;;;;;;;7386886;19;20002;-69
2022/09/23 00:33:39;;;;;;;2.25;1.83;;;;;;;;;;7388516;19;20009;-69
2022/09/23 00:36:06;;;;;;;1.42;1.33;;;;;;;;;;7389031;19;20002;-69
2022/09/23 00:38:32;;;;;;;2.40;1.65;;;;;;;;;;7389049;19;20002;-69
2022/09/23 00:40:59;;;;;;;1.85;1.10;;;;;;;;;;7388582;19;20008;-69
2022/09/23 00:43:39;;;;;;;2.83;1.85;;;;;;;;;;7388403;19;20078;-69
2022/09/23 00:46:08;;;;;;;1.55;1.27;;;;;;;;;;7388623;19;20003;-68
2022/09/23 00:48:35;;;;;;;2.90;1.85;;;;;;;;;;7388610;19;20007;-69
2022/09/23 00:51:00;;;;;;;2.90;1.35;;;;;;;;;;7388234;19;20010;-69
2022/09/23 00:53:26;;;;;;;2.75;1.98;;;;;;;;;;7387989;19;19994;-69
2022/09/23 00:56:01;;;;;;;1.67;1.30;;;;;;;;;;7388415;19;20492;-69
2022/09/23 00:58:30;;;;;;;2.72;1.77;;;;;;;;;;7388393;19;20030;-69
2022/09/23 01:00:59;;;;;;;1.23;1.02;;;;;;;;;;7388303;19;20002;-69
2022/09/23 01:03:24;;;;;;;3.80;2.08;;;;;;;;;;7387151;19;20010;-70
2022/09/23 01:05:51;;;;;;;4.40;2.10;;;;;;;;;;7388704;19;19991;-69
2022/09/23 01:08:18;;;;;;;2.90;1.98;;;;;;;;;;7386402;19;20437;-70
2022/09/23 01:10:49;;;;;;;2.15;1.45;;;;;;;;;;7387050;19;19999;-70
2022/09/23 01:13:22;;;;;;;;;;;;;;;;;;7387979;19;19998;-70
2022/09/23 01:15:56;;;;;;;3.90;1.67;;;;;;;;;;7387824;19;19914;-69
2022/09/23 01:18:49;;;;;;;0.98;0.95;;;;;;;;;;7386360;19;20592;-69
2022/09/23 01:21:22;;;;;;;2.28;1.30;;;;;;;;;;7386435;19;20390;-68
2022/09/23 01:24:14;;;;;;;1.85;1.40;;;;;;;;;;7387692;19;20009;-69
2022/09/23 01:26:39;;;;;;;2.10;1.48;;;;;;;;;;7384949;19;20349;-69
2022/09/23 01:29:44;;;;;;;2.28;1.50;;;;;;;;;;7385261;19;19995;-69
2022/09/23 01:32:36;;;;;;;3.72;1.95;;;;;;;;;;7382626;19;20036;-69
2022/09/23 01:35:22;;;;;;;3.58;2.03;;;;;;;;;;7380058;19;20002;-69
2022/09/23 01:37:59;;;;;;;1.58;1.48;;;;;;;;;;7383309;19;19999;-69
2022/09/23 01:40:49;;;;;;;2.65;1.60;;;;;;;;;;7381838;19;19999;-69
2022/09/23 01:43:21;;;;;;;2.83;1.92;;;;;;;;;;7385500;19;20006;-69
2022/09/23 01:45:55;;;;;;;1.73;1.42;;;;;;;;;;7386393;19;20014;-69
2022/09/23 01:48:31;;;;;;;2.15;1.77;;;;;;;;;;7387897;19;20013;-69
2022/09/23 01:51:04;;;;;;;2.88;1.70;;;;;;;;;;7387770;19;19994;-69
2022/09/23 01:53:50;;;;;;;1.98;1.10;;;;;;;;;;7388745;19;20009;-69
2022/09/23 01:56:24;;;;;;;5.47;1.65;;;;;;;;;;7385935;19;19991;-69
2022/09/23 01:59:00;;;;;;;2.38;1.75;;;;;;;;;;7387600;19;20074;-69
2022/09/23 02:01:33;;;;;;;3.90;1.75;;;;;;;;;;7386814;19;20118;-69
2022/09/23 02:04:16;;;;;;;2.25;1.60;;;;;;;;;;7385872;19;20050;-70
2022/09/23 02:06:49;;;;;;;1.77;1.48;;;;;;;;;;7385659;19;20058;-69
2022/09/23 02:09:21;;;;;;;2.15;1.40;;;;;;;;;;7387001;19;20516;-70
2022/09/23 02:11:50;;;;;;;2.88;1.75;;;;;;;;;;7386080;19;19999;-69
2022/09/23 02:14:24;;;;;;;2.72;1.73;;;;;;;;;;7383765;19;19999;-70
2022/09/23 02:16:58;;;;;;;2.38;1.50;;;;;;;;;;7389540;19;19998;-70
2022/09/23 02:19:40;;;;;;;1.75;1.50;;;;;;;;;;7386493;19;20002;-70
2022/09/23 02:22:22;;;;;;;1.63;1.35;;;;;;;;;;7385771;19;19998;-70
2022/09/23 02:24:48;;;;;;;5.10;1.95;;;;;;;;;;7390223;19;20010;-70
2022/09/23 02:27:31;;;;;;;1.70;1.60;;;;;;;;;;7393777;19;20002;-69
2022/09/23 02:30:13;;;;;;;3.33;1.55;;;;;;;;;;7393558;19;20002;-70
2022/09/23 02:32:57;;;;;;;1.50;1.40;;;;;;;;;;7392593;19;19998;-70
2022/09/23 02:35:31;;;;;;;2.83;1.55;;;;;;;;;;7391172;19;20375;-69
2022/09/23 02:38:12;;;;;;;4.70;1.85;;;;;;;;;;7391637;19;20419;-69
2022/09/23 02:40:47;;;;;;;2.08;1.70;;;;;;;;;;7393546;19;19999;-70
2022/09/23 02:43:20;;;;;;;1.90;1.25;;;;;;;;;;7391759;19;20019;-69
2022/09/23 02:45:46;;;;;;;3.38;1.70;;;;;;;;;;7392791;19;20003;-69
2022/09/23 02:48:23;;;;;;;2.17;1.60;;;;;;;;;;7392918;19;19995;-69
2022/09/23 02:50:48;;;;;;;2.05;1.50;;;;;;;;;;7392939;19;20002;-69
2022/09/23 02:53:16;;;;;;;5.35;1.90;;;;;;;;;;7390149;19;19999;-69
2022/09/23 02:55:42;;;;;;;2.70;1.83;;;;;;;;;;7392527;19;20024;-69
2022/09/23 02:58:08;;;;;;;2.50;1.65;;;;;;;;;;7390653;19;19998;-69
2022/09/23 03:00:48;;;;;;;5.63;1.73;;;;;;;;;;7390494;19;20508;-69
2022/09/23 03:03:29;;;;;;;6.82;1.52;;;;;;;;;;7391111;19;20003;-69
2022/09/23 03:05:57;;;;;;;1.52;1.15;;;;;;;;;;7390699;19;19991;-69
2022/09/23 03:08:52;;;;;;;3.85;1.80;;;;;;;;;;7392522;19;19998;-69
2022/09/23 03:11:20;;;;;;;2.25;1.77;;;;;;;;;;7390567;19;20002;-70
2022/09/23 03:14:05;;;;;;;2.85;1.60;;;;;;;;;;7391560;19;20404;-69
2022/09/23 03:16:42;;;;;;;2.95;1.60;;;;;;;;;;7391816;19;19999;-69
2022/09/23 03:19:33;;;;;;;2.60;2.17;;;;;;;;;;7392114;19;19999;-69
2022/09/23 03:22:11;;;;;;;2.63;1.42;;;;;;;;;;7391062;19;19998;-69
2022/09/23 03:24:38;;;;;;;1.70;1.50;;;;;;;;;;7389598;19;20498;-70
2022/09/23 03:27:12;;;;;;;3.13;2.00;;;;;;;;;;7391560;19;20472;-68
2022/09/23 03:29:41;;;;;;;5.13;2.20;;;;;;;;;;7389665;19;19998;-70
2022/09/23 03:32:07;;;;;;;2.08;1.65;;;;;;;;;;7391135;19;20027;-69
2022/09/23 03:34:35;;;;;;;1.85;1.58;;;;;;;;;;7387882;19;20062;-71
2022/09/23 03:37:12;;;;;;;2.72;1.80;;;;;;;;;;7391481;19;20341;-69
2022/09/23 03:39:41;;;;;;;7.90;1.98;;;;;;;;;;7391111;19;20038;-69
2022/09/23 03:42:28;;;;;;;1.85;1.55;;;;;;;;;;7390483;19;20341;-69
2022/09/23 03:44:56;;;;;;;3.45;2.22;;;;;;;;;;7389289;19;20020;-69
2022/09/23 03:47:26;;;;;;;1.50;1.40;;;;;;;;;;7391307;19;19995;-69
2022/09/23 03:49:52;;;;;;;1.85;1.60;;;;;;;;;;7395011;19;19998;-70
2022/09/23 03:52:20;;;;;;;2.22;1.83;;;;;;;;;;7390459;19;20002;-69
2022/09/23 03:54:45;;;;;;;2.85;2.13;;;;;;;;;;7389227;19;20436;-69
2022/09/23 03:57:11;;;;;;;1.55;1.30;;;;;;;;;;7394560;19;19998;-69
2022/09/23 03:59:37;;;;;;;9.88;1.73;;;;;;;;;;7390229;19;19994;-69
2022/09/23 04:02:03;;;;;;;1.73;1.60;;;;;;;;;;7390266;19;20536;-69
2022/09/23 04:04:31;;;;;;;3.72;1.58;;;;;;;;;;7388970;19;20062;-68
2022/09/23 04:06:56;;;;;;;3.40;1.73;;;;;;;;;;7394297;19;20006;-69
2022/09/23 04:09:22;;;;;;;2.92;1.85;;;;;;;;;;7395394;19;19990;-69
2022/09/23 04:11:49;;;;;;;2.35;1.58;;;;;;;;;;7394471;19;19999;-70
2022/09/23 04:14:14;;;;;;;2.80;1.77;;;;;;;;;;7393071;19;20071;-70
2022/09/23 04:16:39;;;;;;;2.88;1.60;;;;;;;;;;7392219;19;19999;-70
2022/09/23 04:19:05;;;;;;;5.28;2.47;;;;;;;;;;7389681;19;20035;-70
2022/09/23 04:21:31;;;;;;;2.65;1.42;;;;;;;;;;7387653;19;20565;-70
2022/09/23 04:23:56;;;;;;;4.00;1.73;;;;;;;;;;7382039;19;19990;-70
2022/09/23 04:26:21;;;;;;;2.70;1.80;;;;;;;;;;7389912;19;19994;-69
2022/09/23 04:28:46;;;;;;;3.45;2.05;;;;;;;;;;7389573;19;19998;-70
2022/09/23 04:31:12;;;;;;;2.38;1.52;;;;;;;;;;7392408;19;20009;-70
2022/09/23 04:33:37;;;;;;;7.60;2.10;;;;;;;;;;7392478;19;19998;-70
2022/09/23 04:36:03;;;;;;;2.90;1.73;;;;;;;;;;7393263;19;19998;-69
2022/09/23 04:38:28;;;;;;;1.65;1.45;;;;;;;;;;7387898;19;20101;-70
2022/09/23 04:40:53;;;;;;;5.13;2.47;;;;;;;;;;7387510;19;20010;-69
2022/09/23 04:43:22;;;;;;;1.92;1.75;;;;;;;;;;7387773;19;20028;-70
2022/09/23 04:45:57;;;;;;;3.08;1.80;;;;;;;;;;7388097;19;20295;-70
2022/09/23 04:48:23;;;;;;;2.75;1.90;;;;;;;;;;7392901;19;19998;-71
2022/09/23 04:50:48;;;;;;;2.75;1.35;;;;;;;;;;7391904;19;20459;-70
2022/09/23 04:53:15;;;;;;;3.78;1.80;;;;;;;;;;7388727;19;20044;-69
2022/09/23 04:55:41;;;;;;;2.58;1.77;;;;;;;;;;7390583;19;20102;-70
2022/09/23 04:58:08;;;;;;;2.70;1.85;;;;;;;;;;7384630;19;19994;-72
2022/09/23 05:00:34;;;;;;;2.80;1.63;;;;;;;;;;7387714;19;20012;-70
2022/09/23 05:02:59;;;;;;;5.78;2.08;;;;;;;;;;7380530;19;19991;-70
2022/09/23 05:05:25;;;;;;;2.97;1.60;;;;;;;;;;7381284;19;20413;-70
2022/09/23 05:07:53;;;;;;;1.42;1.20;;;;;;;;;;7388635;19;20013;-70
2022/09/23 05:10:18;;;;;;;1.55;1.05;;;;;;;;;;7395146;19;20008;-71
2022/09/23 05:12:44;;;;;;;2.13;1.75;;;;;;;;;;7393759;19;20006;-70
2022/09/23 05:15:09;;;;;;;1.63;1.33;;;;;;;;;;7388547;19;20002;-71
2022/09/23 05:17:36;;;;;;;2.30;1.65;;;;;;;;;;7386986;19;20477;-71
2022/09/23 05:20:01;;;;;;;2.67;1.65;;;;;;;;;;7385440;19;20003;-69
2022/09/23 05:22:28;;;;;;;4.00;1.70;;;;;;;;;;7387058;19;20011;-70
2022/09/23 05:24:53;;;;;;;2.75;1.60;;;;;;;;;;7383086;19;20103;-69
2022/09/23 05:27:19;;;;;;;3.28;1.38;;;;;;;;;;7384899;19;19998;-71
2022/09/23 05:29:45;;;;;;;2.95;1.38;;;;;;;;;;7383268;19;20715;-71
2022/09/23 05:32:10;;;;;;;1.92;1.38;;;;;;;;;;7389846;19;20010;-71
2022/09/23 05:34:36;;;;;;;3.97;1.48;;;;;;;;;;7390426;19;20007;-71
2022/09/23 05:37:01;;;;;;;2.35;1.55;;;;;;;;;;7388181;19;20112;-71
2022/09/23 05:39:27;;;;;;;1.55;1.23;;;;;;;;;;7389678;19;20016;-68
2022/09/23 05:41:54;;;;;;;3.78;1.80;;;;;;;;;;7390710;19;20098;-69
2022/09/23 05:44:46;;;;;;;3.55;2.20;;;;;;;;;;7385836;19;20006;-70
2022/09/23 05:47:18;;;;;;;2.38;1.83;;;;;;;;;;7386254;19;20006;-69
2022/09/23 05:49:43;;;;;;;2.58;1.77;;;;;;;;;;7387800;19;20515;-71
2022/09/23 05:52:09;;;;;;;1.80;1.33;;;;;;;;;;7386822;19;19998;-70
2022/09/23 05:54:35;;;;;;;2.42;1.75;;;;;;;;;;7390048;19;20005;-71
2022/09/23 05:57:00;;;;;;;3.38;1.75;;;;;;;;;;7387970;19;20005;-70
2022/09/23 05:59:25;;;;;;;2.60;1.77;;;;;;;;;;7394465;19;20058;-69
2022/09/23 06:01:51;;;;;;;2.35;1.60;;;;;;;;;;7397284;19;20013;-69
2022/09/23 06:04:17;;;;;;;2.35;1.95;;;;;;;;;;7395304;19;19999;-70
2022/09/23 06:06:42;;;;;;;2.63;1.85;;;;;;;;;;7397397;19;20002;-69
2022/09/23 06:09:12;;;;;;;2.55;1.85;;;;;;;;;;7394742;19;20380;-70
2022/09/23 06:11:37;;;;;;;2.63;1.88;;;;;;;;;;7396756;19;20010;-70
2022/09/23 06:14:03;;;;;;;3.60;1.75;;;;;;;;;;7396616;19;19999;-70
2022/09/23 06:16:31;;;;;;;1.85;1.30;;;;;;;;;;7398620;19;20177;-70
2022/09/23 06:18:59;;;;;;;1.85;1.65;;;;;;;;;;7390212;19;20021;-71
2022/09/23 06:21:24;;;;;;;2.78;1.75;;;;;;;;;;7394057;19;20488;-70
2022/09/23 06:23:50;;;;;;;2.83;1.90;;;;;;;;;;7395436;19;20002;-71
2022/09/23 06:26:15;;;;;;;2.10;1.50;;;;;;;;;;7396888;19;19999;-71
2022/09/23 06:28:42;;;;;;;4.50;1.90;;;;;;;;;;7397448;19;19998;-70
2022/09/23 06:31:15;;;;;;;3.42;2.00;;;;;;;;;;7393705;19;20344;-71
2022/09/23 06:33:44;;;;;;;2.80;1.75;;;;;;;;;;7390347;19;20481;-70
2022/09/23 06:36:11;;;;;;;4.75;2.00;;;;;;;;;;7397258;19;19998;-70
2022/09/23 06:38:43;;;;;;;4.82;2.08;;;;;;;;;;7396083;19;19998;-70
2022/09/23 06:41:09;;;;;;;3.40;1.58;;;;;;;;;;7396268;19;19999;-70
2022/09/23 06:43:34;;;;;;;3.30;1.90;;;;;;;;;;7393916;19;20020;-70
2022/09/23 06:46:02;;;;;;;4.32;2.22;;;;;;;;;;7395311;19;20002;-70
2022/09/23 06:48:28;;;;;;;2.60;1.60;;;;;;;;;;7396103;19;20002;-70
2022/09/23 06:50:58;;;;;;;4.65;2.15;;;;;;;;;;7393742;19;20013;-70
2022/09/23 06:53:23;;;;;;;1.77;1.60;;;;;;;;;;7393758;19;20036;-70
2022/09/23 06:56:10;;;;;;;4.05;2.10;;;;;;;;;;7395127;19;19998;-70
2022/09/23 06:58:37;;;;;;;2.85;2.22;;;;;;;;;;7394640;19;20002;-70
2022/09/23 07:01:08;;;;;;;3.70;2.30;;;;;;;;;;7392644;19;20002;-70
2022/09/23 07:03:34;;;;;;;;;;;;;;;;;;7391989;19;20006;-70
2022/09/23 07:05:59;;;;;;;2.05;1.67;;;;;;;;;;7387704;19;19929;-70
2022/09/23 07:08:26;;;;;;;3.13;2.05;;;;;;;;;;7389364;19;20016;-70
2022/09/23 07:10:53;;;;;;;8.63;2.25;;;;;;;;;;7395964;19;20062;-70
2022/09/23 07:13:18;;;;;;;3.47;2.17;;;;;;;;;;7392946;19;19991;-70
2022/09/23 07:15:50;;;;;;;2.20;1.73;;;;;;;;;;7394204;19;20031;-70
2022/09/23 07:18:17;;;;;;;5.93;2.00;;;;;;;;;;7395432;19;20279;-70
2022/09/23 07:20:42;;;;;;;2.72;1.98;;;;;;;;;;7394126;19;20020;-70
2022/09/23 07:23:08;;;;;;;2.80;1.90;;;;;;;;;;7391641;19;19994;-70
2022/09/23 07:25:33;;;;;;;3.33;1.95;;;;;;;;;;7392464;19;20445;-70
2022/09/23 07:27:59;;;;;;;3.20;2.03;;;;;;;;;;7393265;19;20194;-70
2022/09/23 07:30:25;;;;;;;6.75;2.78;;;;;;;;;;7393618;19;19998;-70
2022/09/23 07:32:50;;;;;;;5.05;2.30;;;;;;;;;;7394525;19;20021;-70
2022/09/23 07:35:16;;;;;;;5.18;2.42;;;;;;;;;;7389079;19;20013;-69
2022/09/23 07:37:41;;;;;;;4.53;1.80;;;;;;;;;;7392021;19;20015;-69
2022/09/23 07:40:07;;;;;;;3.65;1.70;;;;;;;;;;7394811;19;20099;-69
2022/09/23 07:42:32;;;;;;;4.15;2.40;;;;;;;;;;7388871;19;20522;-69
2022/09/23 07:44:58;;;;;;;4.45;2.80;;;;;;;;;;7390346;19;20066;-69
2022/09/23 07:47:23;;;;;;;3.97;2.30;;;;;;;;;;7391767;19;19995;-70
2022/09/23 07:49:48;;;;;;;3.70;2.30;;;;;;;;;;7394043;19;20101;-70
2022/09/23 07:52:13;;;;;;;3.65;2.15;;;;;;;;;;7393303;19;20799;-70
2022/09/23 07:54:39;;;;;;;4.07;2.60;;;;;;;;;;7393201;19;20465;-70
2022/09/23 07:57:04;;;;;;;2.92;1.95;;;;;;;;;;7392485;19;19998;-70
2022/09/23 07:59:30;;;;;;;4.78;2.40;;;;;;;;;;7393416;19;20002;-70
2022/09/23 08:01:56;;;;;;;3.45;2.10;;;;;;;;;;7391391;19;20524;-70
2022/09/23 08:04:28;;;;;;;3.47;2.10;;;;;;;;;;7393153;19;20019;-69
2022/09/23 08:06:56;;;;;;;4.63;2.60;;;;;;;;;;7394209;19;19998;-69
2022/09/23 08:09:26;;;;;;;3.20;2.20;;;;;;;;;;7393069;19;19998;-70
2022/09/23 08:11:51;;;;;;;25.60;13.35;;;;;;;;;;7389177;19;20737;-70
2022/09/23 08:14:17;;;;;;;5.32;2.53;;;;;;;;;;7382699;19;20527;-70
2022/09/23 08:16:45;;;;;;;3.30;2.13;;;;;;;;;;7386839;19;20046;-70
2022/09/23 08:19:11;;;;;;;19.80;3.67;;;;;;;;;;7393259;19;19994;-70
2022/09/23 08:21:38;;;;;;;79.30;9.55;;;;;;;;;;7391491;19;20021;-70
2022/09/23 08:24:22;;;;;;;5.88;2.22;;;;;;;;;;7389368;19;19999;-70
2022/09/23 08:26:51;;;;;;;8.55;3.47;;;;;;;;;;7392893;19;20500;-70
2022/09/23 08:29:18;;;;;;;49.13;6.82;;;;;;;;;;7392861;19;20489;-70
2022/09/23 08:31:44;;;;;;;6.30;3.08;;;;;;;;;;7393403;19;20355;-70
2022/09/23 08:34:10;;;;;;;7.25;3.67;;;;;;;;;;7388770;19;20001;-70
2022/09/23 08:36:36;;;;;;;12.02;4.05;;;;;;;;;;7393166;19;20026;-70
2022/09/23 08:39:02;;;;;;;13.70;4.05;;;;;;;;;;7391743;19;19986;-70
2022/09/23 08:41:36;;;;;;;9.00;3.38;;;;;;;;;;7391979;19;19998;-70
2022/09/23 08:44:18;;;;;;;12.23;4.13;;;;;;;;;;7389423;19;20366;-70
2022/09/23 08:46:48;;;;;;;7.78;3.35;;;;;;;;;;7390812;19;19998;-72
2022/09/23 08:49:24;;;;;;;9.40;3.47;;;;;;;;;;7391364;19;20066;-69
2022/09/23 08:51:53;;;;;;;6.05;3.38;;;;;;;;;;7392150;19;20031;-71
2022/09/23 08:54:19;;;;;;;8.93;3.75;;;;;;;;;;7389563;19;19998;-70
2022/09/23 08:56:50;;;;;;;8.45;3.40;;;;;;;;;;7392699;19;20341;-70
2022/09/23 08:59:36;;;;;;;;;;;;;;;;;;7393000;19;20085;-69
2022/09/23 09:02:16;;;;;;;6.68;3.03;;;;;;;;;;7388854;19;19931;-70
2022/09/23 09:04:44;;;;;;;;;;;;;;;;;;7390395;19;20117;-71
2022/09/23 09:07:11;;;;;;;6.60;3.15;;;;;;;;;;7384478;19;19950;-71
2022/09/23 09:10:05;;;;;;;7.38;3.58;;;;;;;;;;7392578;19;20050;-70
2022/09/23 09:12:42;;;;;;;5.15;3.17;;;;;;;;;;7389898;19;20006;-70
2022/09/23 09:15:14;;;;;;;6.15;3.58;;;;;;;;;;7390352;19;20041;-71
2022/09/23 09:17:47;;;;;;;5.85;3.33;;;;;;;;;;7391314;19;20005;-71
2022/09/23 09:20:18;;;;;;;7.68;3.20;;;;;;;;;;7390912;19;19998;-71
2022/09/23 09:22:52;;;;;;;7.22;3.55;;;;;;;;;;7392154;19;20507;-70
2022/09/23 09:25:21;;;;;;;6.68;3.42;;;;;;;;;;7386138;19;20062;-71
2022/09/23 09:27:47;;;;;;;8.90;4.20;;;;;;;;;;7390951;19;20005;-71
2022/09/23 09:30:21;;;;;;;6.60;3.35;;;;;;;;;;7391107;19;20381;-70
2022/09/23 09:32:49;;;;;;;5.40;3.30;;;;;;;;;;7386056;19;19998;-70
2022/09/23 09:35:32;;;;;;;7.65;3.30;;;;;;;;;;7388592;19;19998;-71
2022/09/23 09:37:57;;;;;;;5.45;3.08;;;;;;;;;;7391159;19;20541;-70
2022/09/23 09:40:24;;;;;;;5.57;3.42;;;;;;;;;;7391667;19;20002;-71
2022/09/23 09:42:50;;;;;;;6.90;3.25;;;;;;;;;;7388993;19;20341;-70
2022/09/23 09:45:41;;;;;;;5.30;3.08;;;;;;;;;;7387262;19;20096;-70
2022/09/23 09:48:19;;;;;;;5.43;3.22;;;;;;;;;;7388758;19;20030;-71
2022/09/23 09:50:49;;;;;;;7.88;3.33;;;;;;;;;;7391534;19;19994;-70
2022/09/23 09:53:30;;;;;;;6.25;3.63;;;;;;;;;;7388614;19;20033;-70
2022/09/23 09:56:09;;;;;;;7.03;3.33;;;;;;;;;;7391064;19;20002;-70
2022/09/23 09:58:50;;;;;;;5.68;3.25;;;;;;;;;;7391694;19;20019;-70
2022/09/23 10:01:28;;;;;;;8.88;3.67;;;;;;;;;;7390010;19;19999;-70
2022/09/23 10:03:57;;;;;;;10.70;3.80;;;;;;;;;;7387924;19;20017;-71
2022/09/23 10:06:25;;;;;;;7.03;3.80;;;;;;;;;;7390103;19;20555;-70
2022/09/23 10:09:12;;;;;;;9.63;3.50;;;;;;;;;;7387746;19;20001;-70
2022/09/23 10:11:39;;;;;;;7.75;3.42;;;;;;;;;;7386344;19;20002;-69
2022/09/23 10:14:18;;;;;;;5.68;3.28;;;;;;;;;;7389748;19;20101;-70
2022/09/23 10:16:46;;;;;;;6.75;3.20;;;;;;;;;;7391244;19;19999;-70
2022/09/23 10:19:24;;;;;;;6.55;3.45;;;;;;;;;;7390130;19;20030;-70
2022/09/23 10:21:57;;;;;;;5.75;3.50;;;;;;;;;;7389917;19;20009;-74
2022/09/23 10:24:31;;;;;;;6.40;3.25;;;;;;;;;;7388845;19;20373;-72
2022/09/23 10:27:01;;;;;;;7.40;3.53;;;;;;;;;;7389923;19;20066;-72
2022/09/23 10:29:33;;;;;;;5.53;2.97;;;;;;;;;;7388236;19;20450;-73
2022/09/23 10:32:29;;;;;;;5.05;2.92;;;;;;;;;;7385362;19;20019;-73
2022/09/23 10:35:13;;;;;;;5.68;3.10;;;;;;;;;;7382334;19;19998;-73
2022/09/23 10:37:45;;;;;;;5.80;3.28;;;;;;;;;;7387997;19;20085;-73
2022/09/23 10:46:46;;;;;;;5.32;3.20;;;;;;;;;;7392223;19;20091;-73
2022/09/23 10:49:40;;;;;;;8.93;3.65;;;;;;;;;;7390620;19;20006;-73
2022/09/23 10:52:35;;;;;;;5.18;3.20;;;;;;;;;;7394129;19;20499;-73
2022/09/23 10:55:19;;;;;;;4.47;3.00;;;;;;;;;;7391785;19;19999;-73
2022/09/23 10:57:44;;;;;;;5.65;3.17;;;;;;;;;;7394211;19;19994;-73
2022/09/23 11:00:27;;;;;;;6.75;3.20;;;;;;;;;;7395967;19;19994;-73
2022/09/23 11:03:32;;;;;;;7.43;3.65;;;;;;;;;;7392144;19;20022;-73
2022/09/23 11:06:13;;;;;;;7.13;3.28;;;;;;;;;;7394872;19;20002;-73
2022/09/23 11:09:13;;;;;;;7.30;3.53;;;;;;;;;;7396298;19;20015;-73
2022/09/23 11:11:53;;;;;;;8.57;3.92;;;;;;;;;;7393273;19;19999;-74
2022/09/23 11:14:31;;;;;;;5.75;3.22;;;;;;;;;;7394335;19;20002;-73
2022/09/23 11:17:37;;;;;;;4.97;3.28;;;;;;;;;;7392916;19;20016;-73
2022/09/23 11:20:31;;;;;;;5.43;3.38;;;;;;;;;;7390723;19;20338;-73
2022/09/23 11:23:13;;;;;;;5.55;3.15;;;;;;;;;;7390533;19;20030;-74
2022/09/23 11:25:58;;;;;;;4.32;3.20;;;;;;;;;;7394328;19;20360;-73
2022/09/23 11:28:36;;;;;;;5.20;3.13;;;;;;;;;;7395289;19;20003;-73
2022/09/23 11:31:09;;;;;;;6.15;3.45;;;;;;;;;;7391840;19;20007;-73
2022/09/23 11:33:59;;;;;;;6.20;3.40;;;;;;;;;;7393416;19;20062;-73
2022/09/23 11:36:42;;;;;;;8.65;3.22;;;;;;;;;;7391291;19;20028;-73
2022/09/23 11:39:18;;;;;;;6.97;3.80;;;;;;;;;;7392587;19;20392;-73
2022/09/23 11:41:45;;;;;;;7.65;3.80;;;;;;;;;;7392916;19;20066;-73
2022/09/23 11:44:22;;;;;;;7.35;3.35;;;;;;;;;;7392976;19;20054;-73
2022/09/23 11:47:00;;;;;;;7.68;3.67;;;;;;;;;;7390908;19;20006;-73
2022/09/23 11:49:31;;;;;;;9.38;3.20;;;;;;;;;;7391322;19;20068;-73
2022/09/23 11:52:19;;;;;;;7.35;3.78;;;;;;;;;;7391272;19;20003;-73
2022/09/23 11:55:12;;;;;;;7.10;2.90;;;;;;;;;;7390238;19;20362;-73
2022/09/23 11:57:44;;;;;;;4.70;2.85;;;;;;;;;;7392451;19;20007;-73
2022/09/23 12:00:22;;;;;;;5.60;3.22;;;;;;;;;;7394828;19;20037;-73
2022/09/23 12:03:01;;;;;;;6.07;3.15;;;;;;;;;;7389873;19;20011;-72
2022/09/23 12:05:31;;;;;;;5.07;2.88;;;;;;;;;;7387539;19;20070;-75
2022/09/23 12:08:16;;;;;;;6.05;3.35;;;;;;;;;;7392627;19;19999;-73
2022/09/23 12:11:08;;;;;;;6.50;3.58;;;;;;;;;;7394572;19;19998;-73
2022/09/23 12:13:59;;;;;;;6.20;2.97;;;;;;;;;;7389867;19;20006;-74
2022/09/23 12:16:37;;;;;;;6.03;2.95;;;;;;;;;;7393989;19;20003;-73
2022/09/23 12:19:41;;;;;;;4.95;2.78;;;;;;;;;;7390172;19;20062;-73
2022/09/23 12:22:35;;;;;;;5.30;3.00;;;;;;;;;;7392558;19;20006;-73
2022/09/23 12:25:10;;;;;;;5.07;2.90;;;;;;;;;;7389049;19;20002;-72
2022/09/23 12:27:40;;;;;;;7.93;3.30;;;;;;;;;;7391096;19;19995;-72
2022/09/23 12:30:15;;;;;;;5.00;2.83;;;;;;;;;;7391683;19;19999;-73
2022/09/23 12:32:41;;;;;;;5.55;2.95;;;;;;;;;;7392367;19;20066;-73
2022/09/23 12:35:21;;;;;;;6.38;2.72;;;;;;;;;;7388682;19;20034;-73
2022/09/23 12:37:47;;;;;;;15.23;10.43;;;;;;;;;;7388324;19;20002;-73
2022/09/23 12:40:34;;;;;;;4.88;2.95;;;;;;;;;;7392546;19;19999;-74
2022/09/23 12:43:01;;;;;;;5.43;3.00;;;;;;;;;;7389533;19;19991;-73
2022/09/23 12:45:33;;;;;;;4.88;2.47;;;;;;;;;;7387806;19;20411;-73
2022/09/23 12:48:18;;;;;;;3.88;2.63;;;;;;;;;;7392187;19;20010;-72
2022/09/23 12:51:06;;;;;;;4.28;2.83;;;;;;;;;;7390930;19;20003;-72
2022/09/23 12:53:31;;;;;;;5.40;3.33;;;;;;;;;;7390035;19;20018;-72
2022/09/23 12:56:13;;;;;;;6.30;3.00;;;;;;;;;;7389145;19;20003;-73
2022/09/23 12:58:41;;;;;;;5.40;2.95;;;;;;;;;;7392996;19;20239;-72
2022/09/23 13:01:12;;;;;;;8.48;3.20;;;;;;;;;;7390465;19;20032;-73
2022/09/23 13:06:56;;;;;;;8.50;2.67;;;;;;;;;;7391551;19;20425;-72
2022/09/23 13:09:44;;;;;;;4.97;2.50;;;;;;;;;;7388366;19;20006;-73
2022/09/23 13:12:19;;;;;;;8.55;2.70;;;;;;;;;;7389631;19;20003;-73
2022/09/23 13:14:47;;;;;;;5.68;2.25;;;;;;;;;;7387205;19;20003;-73
2022/09/23 13:17:34;;;;;;;5.35;2.53;;;;;;;;;;7389327;19;20033;-73
2022/09/23 13:20:18;;;;;;;8.13;2.90;;;;;;;;;;7390634;19;20003;-73
2022/09/23 13:22:52;;;;;;;5.28;2.63;;;;;;;;;;7392129;19;20029;-73
2022/09/23 13:25:31;;;;;;;4.82;2.38;;;;;;;;;;7388909;19;20048;-73
2022/09/23 13:28:02;;;;;;;6.55;2.70;;;;;;;;;;7391525;19;20032;-73
2022/09/23 13:30:28;;;;;;;5.63;2.67;;;;;;;;;;7392428;19;20070;-73
2022/09/23 13:33:20;;;;;;;6.00;2.65;;;;;;;;;;7386080;19;20010;-74
2022/09/23 13:35:50;;;;;;;5.55;2.20;;;;;;;;;;7391524;19;20010;-73
2022/09/23 13:38:28;;;;;;;4.65;2.63;;;;;;;;;;7387760;19;20058;-73
2022/09/23 13:41:16;;;;;;;7.53;2.92;;;;;;;;;;7389615;19;20054;-73
2022/09/23 13:43:57;;;;;;;5.00;2.63;;;;;;;;;;7389837;19;20021;-73
2022/09/23 13:46:30;;;;;;;4.38;2.50;;;;;;;;;;7391579;19;20007;-73
2022/09/23 13:48:55;;;;;;;3.65;2.13;;;;;;;;;;7385455;19;20072;-73
2022/09/23 13:51:34;;;;;;;8.55;2.65;;;;;;;;;;7387876;19;20002;-74
2022/09/23 13:54:02;;;;;;;4.53;2.53;;;;;;;;;;7387646;19;20002;-73
2022/09/23 13:56:30;;;;;;;5.55;2.85;;;;;;;;;;7390763;19;20005;-73
2022/09/23 13:59:25;;;;;;;6.72;2.72;;;;;;;;;;7387099;19;20343;-72
2022/09/23 14:02:10;;;;;;;5.22;3.00;;;;;;;;;;7385898;19;20062;-73
2022/09/23 14:04:36;;;;;;;5.47;2.30;;;;;;;;;;7386978;19;20013;-73
2022/09/23 14:07:02;;;;;;;4.20;2.40;;;;;;;;;;7389534;19;20006;-74
2022/09/23 14:09:29;;;;;;;4.03;2.17;;;;;;;;;;7389823;19;20003;-72
2022/09/23 14:11:59;;;;;;;6.15;2.50;;;;;;;;;;7386770;19;20018;-72
2022/09/23 14:14:26;;;;;;;4.60;2.40;;;;;;;;;;7386914;19;20008;-72
2022/09/23 14:16:52;;;;;;;4.72;2.60;;;;;;;;;;7381718;19;20416;-73
2022/09/23 14:19:20;;;;;;;4.90;2.35;;;;;;;;;;7383238;19;20003;-73
2022/09/23 14:21:48;;;;;;;4.72;2.35;;;;;;;;;;7390350;19;20002;-73
2022/09/23 14:24:17;;;;;;;5.18;2.38;;;;;;;;;;7389460;19;20318;-73
2022/09/23 14:27:12;;;;;;;6.07;2.50;;;;;;;;;;7391750;19;20006;-73
2022/09/23 14:29:39;;;;;;;4.28;2.50;;;;;;;;;;7391554;19;20011;-72
2022/09/23 14:32:09;;;;;;;3.78;2.20;;;;;;;;;;7389403;19;20457;-73
2022/09/23 14:34:50;;;;;;;5.38;2.38;;;;;;;;;;7389448;19;20006;-73
2022/09/23 14:40:27;;;;;;;4.50;2.08;;;;;;;;;;7394498;19;20394;-73
2022/09/23 14:43:25;;;;;;;5.40;2.50;;;;;;;;;;7395349;19;19995;-74
2022/09/23 14:45:57;;;;;;;4.90;2.28;;;;;;;;;;7397281;19;20406;-73
2022/09/23 14:48:30;;;;;;;5.15;2.30;;;;;;;;;;7396111;19;20355;-73
2022/09/23 14:51:01;;;;;;;4.25;2.05;;;;;;;;;;7385831;19;20428;-73
2022/09/23 14:53:32;;;;;;;;;;;;;;;;;;7389723;19;20006;-73
2022/09/23 14:56:08;;;;;;;4.88;2.50;;;;;;;;;;7392127;19;19907;-73
2022/09/23 14:58:49;;;;;;;3.97;2.10;;;;;;;;;;7385564;19;19998;-73
2022/09/23 15:01:33;;;;;;;2.70;1.85;;;;;;;;;;7388900;19;20002;-74
2022/09/23 15:04:09;;;;;;;7.03;3.05;;;;;;;;;;7385589;19;20009;-72
2022/09/23 15:06:37;;;;;;;6.55;3.30;;;;;;;;;;7388037;19;19999;-73
2022/09/23 15:09:04;;;;;;;3.40;2.10;;;;;;;;;;7381291;19;20456;-73
2022/09/23 15:11:30;;;;;;;4.60;2.30;;;;;;;;;;7390046;19;20483;-73
2022/09/23 15:13:55;;;;;;;4.78;2.83;;;;;;;;;;7390444;19;20002;-73
2022/09/23 15:16:26;;;;;;;6.40;2.03;;;;;;;;;;7390501;19;20496;-73
2022/09/23 15:18:58;;;;;;;2.78;1.80;;;;;;;;;;7391156;19;20009;-73
2022/09/23 15:21:29;;;;;;;4.05;2.00;;;;;;;;;;7389331;19;20437;-73
2022/09/23 15:23:56;;;;;;;3.17;2.10;;;;;;;;;;7389472;19;20008;-74
2022/09/23 15:26:46;;;;;;;4.32;1.95;;;;;;;;;;7391892;19;20382;-74
2022/09/23 15:29:11;;;;;;;4.68;2.20;;;;;;;;;;7392438;19;20065;-73